Latest Weather Observations for Gold Coast Seaway

IDQ60901

Issued at 9:15 pm EST Friday 25 July 2014 (issued every 10 minutes, with the page automatically refreshed every 10 minutes)

About weather observations | Map of Brisbane area stations | Latest observations for Brisbane area | Other Formats
Station Details ID: 040764 Name: GOLD COAST SEAWAY Lat: -27.94 Lon: 153.43 Height: 2.98 m
Data from the previous 72 hours. | See also: Recent months at Gold Coast Seaway
Date/Time
EST
Tmp

°C
App
Tmp
°C
Dew
Point
°C
Rel
Hum
%
Delta-T

°C
Wind Press
QNH
hPa
Press
MSL
hPa
Rain
since
9 am
mm
Dir
 
Spd
km/h
Gust
km/h
Spd
kts
Gust
kts
25/09:00pm 17.7 17.5 14.8 83 1.7 WNW 9 9 5 5 1026.9 1026.9 0.0
25/08:30pm 17.4 17.1 14.5 83 1.7 WNW 9 11 5 6 1026.8 - 0.0
25/08:00pm 17.4 17.2 14.7 84 1.5 WNW 9 11 5 6 1026.4 1026.4 0.0
25/07:30pm 17.8 17.6 14.7 82 1.8 WNW 9 11 5 6 1026.1 - 0.0
25/07:00pm 18.5 18.1 15.2 81 1.9 NNW 11 13 6 7 1025.9 1025.9 0.0
25/06:30pm 19.3 17.8 15.4 78 2.3 N 17 20 9 11 1025.5 - 0.0
25/06:00pm 19.4 17.3 15.3 77 2.4 NNE 20 26 11 14 1025.1 1025.1 0.0
25/05:30pm 19.6 15.8 14.8 74 2.8 NNE 28 30 15 16 1024.8 - 0.0
25/05:00pm 19.8 16.0 14.8 73 2.9 NNE 28 32 15 17 1024.4 1024.4 0.0
25/04:30pm 20.4 16.6 14.7 70 3.3 NNE 28 32 15 17 1024.0 - 0.0
25/04:00pm 20.6 16.4 14.7 69 3.4 NNE 30 32 16 17 1023.8 1023.8 0.0
25/03:30pm 21.1 17.2 14.5 66 3.9 NNE 28 32 15 17 1023.8 - 0.0
25/03:00pm 21.5 17.8 14.9 66 3.9 NNE 28 32 15 17 1023.7 1023.7 0.0
25/02:30pm 21.8 18.3 15.4 67 3.8 NNE 28 30 15 16 1023.8 - 0.0
25/02:00pm 21.6 18.6 14.7 65 4.0 NNE 24 28 13 15 1023.9 1023.9 0.0
25/01:30pm 21.9 19.7 14.8 64 4.2 NNE 20 24 11 13 1024.0 - 0.0
25/01:00pm 22.0 19.2 14.4 62 4.4 NNE 22 26 12 14 1024.3 1024.3 0.0
25/12:30pm 21.9 19.3 13.8 60 4.7 NNE 20 22 11 12 1024.6 - 0.0
25/12:00pm 22.2 20.2 13.8 59 4.9 NNE 17 20 9 11 1025.1 1025.1 0.0
25/11:30am 22.1 20.4 13.7 59 4.9 NNE 15 17 8 9 1025.6 - 0.0
25/11:00am 22.0 20.4 13.9 60 4.7 NNE 15 17 8 9 1026.0 1026.0 0.0
25/10:30am 21.7 20.4 13.6 60 4.7 N 13 17 7 9 1026.4 - 0.0
25/10:00am 20.2 19.0 12.9 63 4.1 WNW 11 15 6 8 1026.7 1026.7 0.0
25/09:30am 19.7 18.6 13.2 66 3.7 NW 11 11 6 6 1026.8 - 0.0
25/09:00am 18.4 17.2 12.8 70 3.1 NW 11 11 6 6 1026.7 1026.7 0.0
25/08:30am 16.9 16.1 12.8 77 2.3 WNW 9 11 5 6 1026.6 - 0.0
25/08:00am 15.3 14.0 12.4 83 1.6 WNW 11 13 6 7 1026.3 1026.3 0.0
25/07:30am 14.5 13.3 12.7 89 1.0 WNW 11 11 6 6 1026.1 - 0.0
25/07:00am 13.5 12.2 12.6 94 0.5 WNW 11 13 6 7 1025.8 1025.8 0.0
25/06:30am 13.4 12.0 12.1 92 0.7 WNW 11 13 6 7 1025.4 - 0.0
25/06:00am 13.5 12.0 11.9 90 0.9 W 11 13 6 7 1025.0 1025.0 0.0
25/05:30am 13.8 12.8 12.4 91 0.8 W 9 13 5 7 1024.7 - 0.0
25/05:00am 13.1 11.2 11.8 92 0.7 SW 13 15 7 8 1024.3 1024.3 0.0
25/04:30am 13.3 12.1 11.7 90 0.9 W 9 11 5 6 1024.4 - 0.0
25/04:00am 13.6 12.4 11.7 88 1.0 W 9 11 5 6 1024.3 1024.3 0.0
25/03:30am 13.6 12.9 12.0 90 0.9 WSW 7 9 4 5 1024.6 - 0.0
25/03:00am 13.4 12.2 11.6 89 1.0 SW 9 13 5 7 1024.4 1024.4 0.0
25/02:30am 13.6 12.5 11.8 89 1.0 SW 9 11 5 6 1024.4 - 0.0
25/02:00am 13.5 11.9 11.6 88 1.0 WSW 11 13 6 7 1024.3 1024.3 0.0
25/01:30am 13.5 11.9 11.6 88 1.0 WSW 11 13 6 7 1024.3 - 0.0
25/01:00am 14.0 12.9 11.9 87 1.1 WSW 9 11 5 6 1024.3 1024.3 0.0
25/12:30am 13.9 12.4 11.9 88 1.1 WSW 11 15 6 8 1024.2 - 0.0
25/12:00am 13.8 12.6 11.7 87 1.1 SW 9 11 5 6 1024.3 1024.3 0.0
 
Date/Time
EST
Tmp

°C
App
Tmp
°C
Dew
Point
°C
Rel
Hum
%
Delta-T

°C
Wind Press
QNH
hPa
Press
MSL
hPa
Rain
since
9 am
mm
Dir
 
Spd
km/h
Gust
km/h
Spd
kts
Gust
kts
24/11:30pm 14.0 12.8 11.7 86 1.2 SW 9 13 5 7 1024.5 - 0.0
24/11:00pm 14.4 13.3 12.1 86 1.2 W 9 11 5 6 1024.5 1024.5 0.0
24/10:30pm 14.6 13.5 12.1 85 1.4 WSW 9 11 5 6 1024.6 - 0.0
24/10:00pm 14.9 13.8 12.0 83 1.6 W 9 11 5 6 1024.6 1024.6 0.0
24/09:30pm 15.3 14.3 12.2 82 1.7 SW 9 9 5 5 1024.7 - 0.0
24/09:00pm 15.6 14.3 12.4 81 1.7 SW 11 13 6 7 1024.4 1024.4 0.0
24/08:30pm 15.9 14.9 12.3 79 2.0 SW 9 11 5 6 1024.2 - 0.0
24/08:00pm 16.6 15.4 11.7 73 2.7 ENE 9 11 5 6 1024.0 1024.0 0.0
24/07:30pm 17.9 16.7 12.8 72 2.8 ENE 11 13 6 7 1023.6 - 0.0
24/07:00pm 16.7 15.7 11.0 69 3.0 E 7 11 4 6 1023.4 1023.4 0.0
24/06:30pm 18.2 16.6 11.7 66 3.6 ENE 11 13 6 7 1022.9 - 0.0
24/06:00pm 18.5 16.9 12.7 69 3.2 ENE 13 15 7 8 1022.3 1022.3 0.0
24/05:30pm 18.5 17.0 12.0 66 3.6 ENE 11 15 6 8 1022.2 - 0.0
24/05:00pm 18.8 16.9 11.9 64 3.8 ENE 13 15 7 8 1022.2 1022.2 0.0
24/04:30pm 19.5 17.7 12.0 62 4.2 E 13 15 7 8 1021.9 - 0.0
24/04:00pm 20.2 18.2 11.4 57 4.8 ENE 13 15 7 8 1021.7 1021.7 0.0
24/03:30pm 20.6 18.2 11.5 56 5.0 ENE 15 19 8 10 1021.6 - 0.0
24/03:00pm 20.9 19.2 12.3 58 4.8 E 13 19 7 10 1021.6 1021.6 0.0
24/02:30pm 20.8 18.4 12.5 59 4.7 E 17 20 9 11 1021.5 - 0.0
24/02:00pm 21.3 19.3 14.0 63 4.2 ESE 17 19 9 10 1021.6 1021.6 0.0
24/01:30pm 21.0 18.5 13.4 62 4.4 ESE 19 22 10 12 1021.6 - 0.0
24/01:00pm 21.2 19.0 13.4 61 4.5 ESE 17 20 9 11 1021.9 1021.9 0.0
24/12:30pm 21.1 19.0 13.5 62 4.4 SE 17 19 9 10 1022.2 - 0.0
24/12:00pm 20.8 18.9 13.0 61 4.4 SE 15 19 8 10 1022.7 1022.7 0.0
24/11:30am 21.2 19.3 12.9 59 4.7 SSE 15 19 8 10 1023.1 - 0.0
24/11:00am 20.7 18.8 12.9 61 4.4 SE 15 19 8 10 1023.3 1023.3 0.0
24/10:30am 20.4 18.5 12.9 62 4.3 SSE 15 19 8 10 1023.6 - 0.0
24/10:00am 19.8 16.9 12.3 62 4.2 S 19 24 10 13 1023.6 1023.6 0.0
24/09:30am 19.0 16.4 12.0 64 3.9 S 17 19 9 10 1023.2 - 0.0
24/09:00am 18.0 15.9 11.3 65 3.6 S 13 15 7 8 1023.0 1023.0 0.2
24/08:30am 16.5 15.2 11.4 72 2.8 SSW 9 11 5 6 1023.0 - 0.2
24/08:00am 14.8 14.0 11.6 81 1.7 SW 7 9 4 5 1022.9 1022.9 0.2
24/07:30am 14.3 13.4 11.3 82 1.6 SW 7 9 4 5 1022.9 - 0.2
24/07:00am 13.9 12.6 11.2 84 1.4 WSW 9 11 5 6 1022.6 1022.6 0.2
24/06:30am 13.6 12.2 10.9 84 1.4 WSW 9 11 5 6 1022.2 - 0.2
24/06:00am 13.4 11.6 10.8 84 1.4 SW 11 13 6 7 1021.9 1021.9 0.2
24/05:30am 13.5 11.7 10.9 84 1.4 SW 11 15 6 8 1021.5 - 0.2
24/05:00am 13.5 11.7 10.9 84 1.4 SW 11 13 6 7 1021.3 1021.3 0.2
24/04:30am 13.5 11.7 10.9 84 1.4 SW 11 15 6 8 1021.1 - 0.2
24/04:00am 13.8 12.4 11.0 83 1.5 W 9 11 5 6 1021.2 1021.2 0.2
24/03:30am 13.8 12.0 11.0 83 1.5 W 11 13 6 7 1021.3 - 0.2
24/03:00am 13.6 11.8 10.9 84 1.4 W 11 13 6 7 1021.5 1021.5 0.2
24/02:30am 13.6 12.3 11.1 85 1.3 SW 9 11 5 6 1021.1 - 0.2
24/02:00am 13.7 12.4 11.2 85 1.3 SW 9 11 5 6 1021.3 1021.3 0.2
24/01:30am 13.6 11.8 10.9 84 1.4 SW 11 13 6 7 1021.6 - 0.2
24/01:00am 13.5 11.3 10.9 84 1.4 SW 13 15 7 8 1022.0 1022.0 0.2
24/12:30am 13.5 11.3 10.9 84 1.4 WSW 13 17 7 9 1021.9 - 0.2
24/12:00am 13.5 11.7 11.0 85 1.3 SW 11 13 6 7 1021.6 1021.6 0.2
 
Date/Time
EST
Tmp

°C
App
Tmp
°C
Dew
Point
°C
Rel
Hum
%
Delta-T

°C
Wind Press
QNH
hPa
Press
MSL
hPa
Rain
since
9 am
mm
Dir
 
Spd
km/h
Gust
km/h
Spd
kts
Gust
kts
23/11:30pm 13.7 11.9 10.9 83 1.5 SW 11 15 6 8 1022.2 - 0.2
23/11:00pm 13.5 11.7 10.7 83 1.5 SW 11 13 6 7 1022.3 1022.3 0.2
23/10:30pm 13.8 11.6 10.8 82 1.6 SSW 13 17 7 9 1022.3 - 0.2
23/10:00pm 13.7 11.8 10.5 81 1.7 SSW 11 13 6 7 1022.3 1022.3 0.2
23/09:30pm 14.1 11.8 10.5 79 1.9 SSW 13 15 7 8 1022.3 - 0.2
23/09:00pm 14.6 12.3 10.6 77 2.1 SSW 13 15 7 8 1022.2 1022.2 0.2
23/08:30pm 14.8 12.3 11.0 78 2.0 SSW 15 17 8 9 1022.2 - 0.2
23/08:00pm 15.2 12.4 11.2 77 2.1 S 17 26 9 14 1021.9 1021.9 0.2
23/07:30pm 16.7 12.2 12.7 77 2.2 S 28 33 15 18 1022.0 - 0.2
23/07:00pm 16.8 12.0 12.9 78 2.2 S 30 35 16 19 1021.8 1021.8 0.2
23/06:30pm 17.2 11.7 11.9 71 2.9 SSE 32 37 17 20 1021.8 - 0.2
23/06:00pm 17.4 12.2 12.9 75 2.5 SSE 32 39 17 21 1021.3 1021.3 0.2
23/05:30pm 17.4 11.9 11.9 70 3.0 SSE 32 37 17 20 1021.0 - 0.2
23/05:00pm 17.5 11.7 10.9 65 3.5 SSE 32 39 17 21 1020.9 1020.9 0.2
23/04:30pm 17.9 12.4 11.9 68 3.3 SSE 32 39 17 21 1020.7 - 0.2
23/04:00pm 18.1 12.7 12.3 69 3.2 SSE 32 37 17 20 1020.7 1020.7 0.0
23/03:30pm 19.0 13.5 11.8 63 4.0 SE 32 39 17 21 1020.7 - 0.0
23/03:00pm 19.5 14.6 12.5 64 3.9 SE 30 33 16 18 1020.5 1020.5 0.0
23/02:30pm 19.5 14.0 12.0 62 4.2 SE 32 41 17 22 1020.3 - 0.0
23/02:00pm 20.1 15.1 12.3 61 4.4 SE 30 33 16 18 1020.3 1020.3 0.0
23/01:30pm 20.6 17.5 11.5 56 5.0 SSE 19 24 10 13 1020.4 - 0.0
23/01:00pm 20.5 16.8 11.4 56 5.0 SSE 22 30 12 16 1020.5 1020.5 0.0
23/12:30pm 20.3 16.3 11.8 58 4.7 SSE 24 30 13 16 1021.0 - 0.0
23/12:00pm 19.5 14.5 11.0 58 4.6 SSE 28 33 15 18 1021.5 1021.5 0.0
23/11:30am 19.5 14.2 11.3 59 4.5 S 30 35 16 19 1021.9 - 0.0
23/11:00am 19.3 15.2 11.6 61 4.2 S 24 32 13 17 1022.4 1022.4 0.0
23/10:30am 18.9 14.9 11.7 63 4.0 S 24 30 13 16 1022.9 - 0.0
23/10:00am 18.5 15.3 12.0 66 3.6 S 20 26 11 14 1023.1 1023.1 0.0
23/09:30am 17.4 15.0 11.4 68 3.3 S 15 19 8 10 1023.2 - 0.0
23/09:00am 16.0 14.2 11.0 72 2.7 SW 11 15 6 8 1023.2 1023.2 5.0
23/08:30am 14.9 13.1 10.7 76 2.2 SW 11 15 6 8 1022.9 - 5.0
23/08:00am 13.3 12.2 10.8 85 1.3 SSW 7 13 4 7 1022.5 1022.5 5.0
23/07:30am 11.9 10.9 11.0 94 0.5 WSW 7 11 4 6 1022.2 - 5.0
23/07:00am 10.7 9.2 10.4 98 0.2 SW 9 9 5 5 1021.9 1021.9 5.0
23/06:30am 10.8 9.3 10.5 98 0.2 SW 9 11 5 6 1021.6 - 5.0
23/06:00am 9.9 8.4 9.0 94 0.4 SSW 7 9 4 5 1021.2 1021.2 5.0
23/05:30am 10.4 8.9 9.3 93 0.5 SSW 7 9 4 5 1020.9 - 5.0
23/05:00am 10.9 9.2 10.0 94 0.5 SSW 9 11 5 6 1020.7 1020.7 5.0
23/04:30am 11.4 9.5 10.6 95 0.4 WSW 11 13 6 7 1020.6 - 5.0
23/04:00am 11.2 9.9 10.1 93 0.6 W 7 9 4 5 1020.4 1020.4 5.0
23/03:30am 11.4 10.0 10.9 97 0.3 WSW 9 13 5 7 1020.3 - 5.0
23/03:00am 11.1 9.6 10.6 97 0.3 SW 9 9 5 5 1020.3 1020.3 5.0
23/02:30am 11.3 10.2 10.7 96 0.3 SW 7 11 4 6 1020.7 - 5.0
23/02:00am 11.3 9.8 10.7 96 0.3 SW 9 11 5 6 1021.2 1021.2 5.0
23/01:30am 11.5 10.0 10.6 94 0.5 SW 9 13 5 7 1020.9 - 4.8
23/01:00am 12.0 10.2 10.7 92 0.7 WSW 11 13 6 7 1021.1 1021.1 4.8
23/12:30am 12.4 10.9 10.6 89 0.9 SW 9 11 5 6 1021.0 - 4.8
23/12:00am 12.8 11.3 10.5 86 1.2 WSW 9 15 5 8 1021.4 1021.4 4.8
 
Date/Time
EST
Tmp

°C
App
Tmp
°C
Dew
Point
°C
Rel
Hum
%
Delta-T

°C
Wind Press
QNH
hPa
Press
MSL
hPa
Rain
since
9 am
mm
Dir
 
Spd
km/h
Gust
km/h
Spd
kts
Gust
kts
22/11:30pm 12.9 11.0 10.4 85 1.3 WSW 11 15 6 8 1021.1 - 4.8
22/11:00pm 13.1 11.3 10.8 86 1.2 WSW 11 13 6 7 1021.5 1021.5 4.8
22/10:30pm 13.4 12.0 10.9 85 1.3 SW 9 13 5 7 1021.8 - 4.8
22/10:00pm 14.4 12.6 11.0 80 1.8 SW 11 15 6 8 1022.0 1022.0 4.8
22/09:30pm 14.8 10.1 12.1 84 1.5 SE 28 33 15 18 1021.9 - 4.8

Latest Capital City Observations: Canberra | Sydney | Melbourne | Brisbane | Adelaide | Perth | Hobart | Darwin

Other Formats:

Comma delimited format used in spreadsheet applications
http://www.bom.gov.au/fwo/IDQ60901/IDQ60901.94580.axf

JavaScript Object Notation format (JSON) in row-major order
http://www.bom.gov.au/fwo/IDQ60901/IDQ60901.94580.json